sensor_id;sensor_type;location;lat;lon;timestamp;pressure;altitude;pressure_sealevel;temperature;humidity
78894;BME280;68282;42.698;23.350;2023-05-27T00:01:57;95549.53;;;17.16;66.44
78894;BME280;68282;42.698;23.350;2023-05-27T00:04:23;95549.00;;;17.09;66.75
78894;BME280;68282;42.698;23.350;2023-05-27T00:06:48;95538.28;;;17.12;66.53
78894;BME280;68282;42.698;23.350;2023-05-27T00:09:14;95535.25;;;17.09;66.84
78894;BME280;68282;42.698;23.350;2023-05-27T00:11:40;95538.03;;;17.14;66.63
78894;BME280;68282;42.698;23.350;2023-05-27T00:14:05;95534.44;;;17.19;66.57
78894;BME280;68282;42.698;23.350;2023-05-27T00:16:31;95534.97;;;17.21;66.67
78894;BME280;68282;42.698;23.350;2023-05-27T00:18:57;95536.63;;;17.17;66.35
78894;BME280;68282;42.698;23.350;2023-05-27T00:21:22;95536.09;;;17.20;66.09
78894;BME280;68282;42.698;23.350;2023-05-27T00:23:51;95539.66;;;17.20;66.21
78894;BME280;68282;42.698;23.350;2023-05-27T00:26:16;95525.63;;;17.22;65.73
78894;BME280;68282;42.698;23.350;2023-05-27T00:28:42;95518.75;;;17.19;66.00
78894;BME280;68282;42.698;23.350;2023-05-27T00:31:07;95523.44;;;17.19;65.44
78894;BME280;68282;42.698;23.350;2023-05-27T00:33:33;95513.00;;;17.15;65.05
78894;BME280;68282;42.698;23.350;2023-05-27T00:35:58;95517.94;;;17.13;64.92
78894;BME280;68282;42.698;23.350;2023-05-27T00:38:23;95515.47;;;17.07;65.49
78894;BME280;68282;42.698;23.350;2023-05-27T00:40:49;95511.06;;;17.06;65.40
78894;BME280;68282;42.698;23.350;2023-05-27T00:43:17;95510.22;;;16.90;65.79
78894;BME280;68282;42.698;23.350;2023-05-27T00:45:43;95507.75;;;16.88;66.41
78894;BME280;68282;42.698;23.350;2023-05-27T00:48:08;95503.63;;;16.85;66.47
78894;BME280;68282;42.698;23.350;2023-05-27T00:50:34;95502.25;;;16.67;67.17
78894;BME280;68282;42.698;23.350;2023-05-27T00:53:00;95497.56;;;16.58;67.60
78894;BME280;68282;42.698;23.350;2023-05-27T00:55:26;95499.47;;;16.47;68.17
78894;BME280;68282;42.698;23.350;2023-05-27T00:57:52;95492.88;;;16.43;67.92
78894;BME280;68282;42.698;23.350;2023-05-27T01:00:21;95487.94;;;16.50;68.05
78894;BME280;68282;42.698;23.350;2023-05-27T01:02:47;95487.41;;;16.58;68.09
78894;BME280;68282;42.698;23.350;2023-05-27T01:05:14;95486.56;;;16.68;68.57
78894;BME280;68282;42.698;23.350;2023-05-27T01:10:38;95481.66;;;16.75;67.98
78894;BME280;68282;42.698;23.350;2023-05-27T01:15:37;95469.56;;;16.81;67.59
78894;BME280;68282;42.698;23.350;2023-05-27T01:18:04;95464.63;;;16.83;67.10
78894;BME280;68282;42.698;23.350;2023-05-27T01:20:30;95462.16;;;16.87;67.58
78894;BME280;68282;42.698;23.350;2023-05-27T01:22:56;95458.56;;;16.92;67.41
78894;BME280;68282;42.698;23.350;2023-05-27T01:25:24;95457.47;;;16.93;68.24
78894;BME280;68282;42.698;23.350;2023-05-27T01:27:50;95454.16;;;16.91;68.28
78894;BME280;68282;42.698;23.350;2023-05-27T01:30:18;95437.69;;;16.91;68.58
78894;BME280;68282;42.698;23.350;2023-05-27T01:33:08;95444.28;;;16.90;68.50
78894;BME280;68282;42.698;23.350;2023-05-27T01:35:44;95441.81;;;16.88;68.33
78894;BME280;68282;42.698;23.350;2023-05-27T01:38:14;95438.22;;;16.88;68.97
78894;BME280;68282;42.698;23.350;2023-05-27T01:40:41;95434.38;;;16.89;68.70
78894;BME280;68282;42.698;23.350;2023-05-27T01:43:09;95436.63;;;16.87;68.86
78894;BME280;68282;42.698;23.350;2023-05-27T01:45:35;95431.94;;;16.87;68.83
78894;BME280;68282;42.698;23.350;2023-05-27T01:48:01;95437.41;;;16.87;68.56
78894;BME280;68282;42.698;23.350;2023-05-27T01:50:26;95432.22;;;16.85;68.71
78894;BME280;68282;42.698;23.350;2023-05-27T01:52:52;95434.13;;;16.85;68.52
78894;BME280;68282;42.698;23.350;2023-05-27T01:55:17;95436.88;;;16.85;68.48
78894;BME280;68282;42.698;23.350;2023-05-27T01:57:43;95440.16;;;16.82;68.66
78894;BME280;68282;42.698;23.350;2023-05-27T02:00:09;95444.03;;;16.81;68.70
78894;BME280;68282;42.698;23.350;2023-05-27T02:02:35;95450.63;;;16.80;68.70
78894;BME280;68282;42.698;23.350;2023-05-27T02:05:00;95445.38;;;16.78;68.74
78894;BME280;68282;42.698;23.350;2023-05-27T02:07:25;95439.09;;;16.78;68.50
78894;BME280;68282;42.698;23.350;2023-05-27T02:09:51;95428.34;;;16.76;68.63
78894;BME280;68282;42.698;23.350;2023-05-27T02:12:17;95439.63;;;16.75;68.73
78894;BME280;68282;42.698;23.350;2023-05-27T02:14:42;95442.09;;;16.71;68.81
78894;BME280;68282;42.698;23.350;2023-05-27T02:17:10;95432.47;;;16.74;68.72
78894;BME280;68282;42.698;23.350;2023-05-27T02:19:35;95444.56;;;16.73;68.74
78894;BME280;68282;42.698;23.350;2023-05-27T02:22:01;95445.94;;;16.70;68.97
78894;BME280;68282;42.698;23.350;2023-05-27T02:24:26;95438.81;;;16.69;69.11
78894;BME280;68282;42.698;23.350;2023-05-27T02:26:52;95440.19;;;16.66;69.21
78894;BME280;68282;42.698;23.350;2023-05-27T02:29:17;95437.44;;;16.66;69.26
78894;BME280;68282;42.698;23.350;2023-05-27T02:31:42;95445.94;;;16.65;69.28
78894;BME280;68282;42.698;23.350;2023-05-27T02:34:08;95445.94;;;16.65;69.44
78894;BME280;68282;42.698;23.350;2023-05-27T02:36:33;95447.06;;;16.64;69.70
78894;BME280;68282;42.698;23.350;2023-05-27T02:39:00;95449.22;;;16.67;69.63
78894;BME280;68282;42.698;23.350;2023-05-27T02:41:25;95440.44;;;16.65;69.76
78894;BME280;68282;42.698;23.350;2023-05-27T02:43:51;95451.97;;;16.67;69.68
78894;BME280;68282;42.698;23.350;2023-05-27T02:46:17;95455.28;;;16.69;69.72
78894;BME280;68282;42.698;23.350;2023-05-27T02:48:42;95451.44;;;16.70;69.82
78894;BME280;68282;42.698;23.350;2023-05-27T02:51:07;95444.84;;;16.71;69.75
78894;BME280;68282;42.698;23.350;2023-05-27T02:53:33;95447.31;;;16.73;69.95
78894;BME280;68282;42.698;23.350;2023-05-27T02:55:58;95443.75;;;16.72;69.65
78894;BME280;68282;42.698;23.350;2023-05-27T02:58:23;95445.97;;;16.75;69.58
78894;BME280;68282;42.698;23.350;2023-05-27T03:00:49;95443.22;;;16.75;69.79
78894;BME280;68282;42.698;23.350;2023-05-27T03:03:14;95439.91;;;16.73;69.79
78894;BME280;68282;42.698;23.350;2023-05-27T03:05:40;95434.13;;;16.75;69.52
78894;BME280;68282;42.698;23.350;2023-05-27T03:08:05;95442.91;;;16.77;69.39
78894;BME280;68282;42.698;23.350;2023-05-27T03:10:34;95429.47;;;16.75;69.14
78894;BME280;68282;42.698;23.350;2023-05-27T03:12:59;95438.53;;;16.81;69.37
78894;BME280;68282;42.698;23.350;2023-05-27T03:15:24;95432.75;;;16.82;69.44
78894;BME280;68282;42.698;23.350;2023-05-27T03:17:50;95442.66;;;16.83;69.57
78894;BME280;68282;42.698;23.350;2023-05-27T03:20:17;95447.03;;;16.84;69.40
78894;BME280;68282;42.698;23.350;2023-05-27T03:22:44;95448.13;;;16.78;69.25
78894;BME280;68282;42.698;23.350;2023-05-27T03:25:09;95450.06;;;16.73;69.17
78894;BME280;68282;42.698;23.350;2023-05-27T03:27:34;95445.13;;;16.75;69.24
78894;BME280;68282;42.698;23.350;2023-05-27T03:30:00;95441.25;;;16.70;69.21
78894;BME280;68282;42.698;23.350;2023-05-27T03:32:26;95445.97;;;16.75;69.08
78894;BME280;68282;42.698;23.350;2023-05-27T03:34:51;95447.31;;;16.78;69.64
78894;BME280;68282;42.698;23.350;2023-05-27T03:37:16;95459.97;;;16.79;69.33
78894;BME280;68282;42.698;23.350;2023-05-27T03:39:42;95462.13;;;16.82;69.69
78894;BME280;68282;42.698;23.350;2023-05-27T03:42:07;95462.16;;;16.87;69.66
78894;BME280;68282;42.698;23.350;2023-05-27T03:44:33;95469.03;;;16.84;69.65
78894;BME280;68282;42.698;23.350;2023-05-27T03:47:02;95462.97;;;16.82;69.27
78894;BME280;68282;42.698;23.350;2023-05-27T03:49:27;95472.84;;;16.89;69.69
78894;BME280;68282;42.698;23.350;2023-05-27T03:51:52;95465.19;;;16.85;69.63
78894;BME280;68282;42.698;23.350;2023-05-27T03:54:18;95463.53;;;16.84;69.59
78894;BME280;68282;42.698;23.350;2023-05-27T03:56:43;95456.94;;;16.80;69.53
78894;BME280;68282;42.698;23.350;2023-05-27T03:59:09;95462.97;;;16.77;69.52
78894;BME280;68282;42.698;23.350;2023-05-27T04:01:34;95456.09;;;16.75;69.25
78894;BME280;68282;42.698;23.350;2023-05-27T04:03:59;95458.84;;;16.80;69.23
78894;BME280;68282;42.698;23.350;2023-05-27T04:06:25;95468.75;;;16.81;68.93
78894;BME280;68282;42.698;23.350;2023-05-27T04:08:50;95467.63;;;16.82;68.90
78894;BME280;68282;42.698;23.350;2023-05-27T04:11:16;95465.97;;;16.70;69.09
78894;BME280;68282;42.698;23.350;2023-05-27T04:13:42;95461.88;;;16.68;69.41
78894;BME280;68282;42.698;23.350;2023-05-27T04:16:07;95462.41;;;16.70;69.41
78894;BME280;68282;42.698;23.350;2023-05-27T04:18:33;95466.81;;;16.66;68.81
78894;BME280;68282;42.698;23.350;2023-05-27T04:20:59;95463.81;;;16.67;68.54
78894;BME280;68282;42.698;23.350;2023-05-27T04:23:25;95466.81;;;16.66;68.54
78894;BME280;68282;42.698;23.350;2023-05-27T04:25:50;95465.16;;;16.70;68.53
78894;BME280;68282;42.698;23.350;2023-05-27T04:28:17;95458.56;;;16.71;68.28
78894;BME280;68282;42.698;23.350;2023-05-27T04:30:43;95458.31;;;16.78;68.16
78894;BME280;68282;42.698;23.350;2023-05-27T04:33:09;95467.38;;;16.83;68.19
78894;BME280;68282;42.698;23.350;2023-05-27T04:35:34;95469.84;;;16.80;68.12
78894;BME280;68282;42.698;23.350;2023-05-27T04:38:00;95465.19;;;16.85;68.15
78894;BME280;68282;42.698;23.350;2023-05-27T04:40:26;95468.44;;;16.88;67.69
78894;BME280;68282;42.698;23.350;2023-05-27T04:42:52;95475.06;;;16.92;68.04
78894;BME280;68282;42.698;23.350;2023-05-27T04:45:18;95472.88;;;16.83;68.11
78894;BME280;68282;42.698;23.350;2023-05-27T04:47:46;95468.19;;;16.84;68.10
78894;BME280;68282;42.698;23.350;2023-05-27T04:50:12;95472.88;;;16.83;68.39
78894;BME280;68282;42.698;23.350;2023-05-27T04:52:38;95477.53;;;16.88;68.53
78894;BME280;68282;42.698;23.350;2023-05-27T04:55:08;95478.09;;;16.95;68.76
78894;BME280;68282;42.698;23.350;2023-05-27T04:57:34;95473.13;;;16.87;68.05
78894;BME280;68282;42.698;23.350;2023-05-27T05:00:00;95463.50;;;16.90;68.22
78894;BME280;68282;42.698;23.350;2023-05-27T05:02:31;95465.69;;;16.88;68.41
78894;BME280;68282;42.698;23.350;2023-05-27T05:05:06;95474.25;;;16.96;67.98
78894;BME280;68282;42.698;23.350;2023-05-27T05:07:34;95468.78;;;17.02;68.27
78894;BME280;68282;42.698;23.350;2023-05-27T05:10:03;95467.38;;;17.04;68.19
78894;BME280;68282;42.698;23.350;2023-05-27T05:12:29;95470.94;;;17.10;67.95
78894;BME280;68282;42.698;23.350;2023-05-27T05:14:55;95470.66;;;17.11;67.59
78894;BME280;68282;42.698;23.350;2023-05-27T05:17:21;95468.75;;;17.12;67.89
78894;BME280;68282;42.698;23.350;2023-05-27T05:19:49;95472.34;;;17.07;67.89
78894;BME280;68282;42.698;23.350;2023-05-27T05:22:15;95483.34;;;16.97;67.64
78894;BME280;68282;42.698;23.350;2023-05-27T05:24:44;95481.69;;;17.06;67.26
78894;BME280;68282;42.698;23.350;2023-05-27T05:27:09;95481.66;;;17.11;67.01
78894;BME280;68282;42.698;23.350;2023-05-27T05:29:35;95480.84;;;16.95;66.53
78894;BME280;68282;42.698;23.350;2023-05-27T05:32:03;95483.34;;;16.97;67.07
78894;BME280;68282;42.698;23.350;2023-05-27T05:34:29;95487.72;;;17.03;67.01
78894;BME280;68282;42.698;23.350;2023-05-27T05:36:55;95491.53;;;16.81;67.61
78894;BME280;68282;42.698;23.350;2023-05-27T05:39:20;95491.56;;;17.02;67.60
78894;BME280;68282;42.698;23.350;2023-05-27T05:41:46;95500.34;;;17.09;67.08
78894;BME280;68282;42.698;23.350;2023-05-27T05:44:11;95495.13;;;17.08;67.38
78894;BME280;68282;42.698;23.350;2023-05-27T05:46:37;95494.03;;;17.14;67.20
78894;BME280;68282;42.698;23.350;2023-05-27T05:49:04;95487.16;;;17.17;66.77
78894;BME280;68282;42.698;23.350;2023-05-27T05:51:30;95490.16;;;17.15;66.94
78894;BME280;68282;42.698;23.350;2023-05-27T05:53:57;95498.16;;;17.01;66.98
78894;BME280;68282;42.698;23.350;2023-05-27T05:56:22;95490.19;;;16.94;67.43
78894;BME280;68282;42.698;23.350;2023-05-27T05:58:48;95498.16;;;17.06;67.30
78894;BME280;68282;42.698;23.350;2023-05-27T06:01:14;95503.66;;;17.11;67.63
78894;BME280;68282;42.698;23.350;2023-05-27T06:03:39;95500.38;;;16.94;68.17
78894;BME280;68282;42.698;23.350;2023-05-27T06:06:04;95500.09;;;17.11;67.76
78894;BME280;68282;42.698;23.350;2023-05-27T06:08:30;95509.16;;;17.06;68.07
78894;BME280;68282;42.698;23.350;2023-05-27T06:10:55;95501.75;;;17.02;67.79
78894;BME280;68282;42.698;23.350;2023-05-27T06:13:21;95508.06;;;17.18;67.79
78894;BME280;68282;42.698;23.350;2023-05-27T06:15:46;95493.75;;;17.26;68.06
78894;BME280;68282;42.698;23.350;2023-05-27T06:18:12;95499.22;;;17.31;67.93
78894;BME280;68282;42.698;23.350;2023-05-27T06:20:37;95497.56;;;17.35;67.19
78894;BME280;68282;42.698;23.350;2023-05-27T06:23:02;95502.78;;;17.37;67.04
78894;BME280;68282;42.698;23.350;2023-05-27T06:25:31;95508.00;;;17.43;66.67
78894;BME280;68282;42.698;23.350;2023-05-27T06:27:56;95508.84;;;17.39;66.81
78894;BME280;68282;42.698;23.350;2023-05-27T06:30:22;95514.59;;;17.42;66.30
78894;BME280;68282;42.698;23.350;2023-05-27T06:32:47;95519.00;;;17.43;66.88
78894;BME280;68282;42.698;23.350;2023-05-27T06:35:12;95512.72;;;17.33;67.10
78894;BME280;68282;42.698;23.350;2023-05-27T06:37:38;95515.97;;;17.40;66.73
78894;BME280;68282;42.698;23.350;2023-05-27T06:40:03;95525.91;;;17.36;66.85
78894;BME280;68282;42.698;23.350;2023-05-27T06:42:29;95520.38;;;17.46;66.75
78894;BME280;68282;42.698;23.350;2023-05-27T06:44:54;95523.13;;;17.51;66.34
78894;BME280;68282;42.698;23.350;2023-05-27T06:47:20;95521.72;;;17.54;66.56
78894;BME280;68282;42.698;23.350;2023-05-27T06:49:46;95523.63;;;17.64;66.25
78894;BME280;68282;42.698;23.350;2023-05-27T06:52:11;95531.31;;;17.72;66.59
78894;BME280;68282;42.698;23.350;2023-05-27T06:54:37;95529.13;;;17.74;66.79
78894;BME280;68282;42.698;23.350;2023-05-27T06:57:02;95525.25;;;17.75;66.08
78894;BME280;68282;42.698;23.350;2023-05-27T06:59:31;95527.72;;;17.82;66.11
78894;BME280;68282;42.698;23.350;2023-05-27T07:01:57;95524.38;;;17.90;66.30
78894;BME280;68282;42.698;23.350;2023-05-27T07:04:24;95529.88;;;17.95;66.33
78894;BME280;68282;42.698;23.350;2023-05-27T07:06:49;95536.75;;;18.03;66.17
78894;BME280;68282;42.698;23.350;2023-05-27T07:09:15;95535.38;;;18.00;66.02
78894;BME280;68282;42.698;23.350;2023-05-27T07:11:40;95530.97;;;17.99;66.09
78894;BME280;68282;42.698;23.350;2023-05-27T07:14:06;95533.19;;;18.07;66.12
78894;BME280;68282;42.698;23.350;2023-05-27T07:16:31;95535.09;;;18.12;65.69
78894;BME280;68282;42.698;23.350;2023-05-27T07:18:57;95530.09;;;18.14;65.88
78894;BME280;68282;42.698;23.350;2023-05-27T07:21:22;95532.28;;;18.22;65.96
78894;BME280;68282;42.698;23.350;2023-05-27T07:23:48;95536.09;;;18.27;66.40
78894;BME280;68282;42.698;23.350;2023-05-27T07:26:13;95523.19;;;18.27;65.83
78894;BME280;68282;42.698;23.350;2023-05-27T07:28:38;95524.28;;;18.21;65.48
78894;BME280;68282;42.698;23.350;2023-05-27T07:31:04;95535.25;;;18.31;65.42
78894;BME280;68282;42.698;23.350;2023-05-27T07:33:30;95533.09;;;18.28;65.94
78894;BME280;68282;42.698;23.350;2023-05-27T07:35:56;95532.78;;;18.35;65.70
78894;BME280;68282;42.698;23.350;2023-05-27T07:38:21;95535.25;;;18.36;65.27
78894;BME280;68282;42.698;23.350;2023-05-27T07:40:47;95530.28;;;18.38;64.60
78894;BME280;68282;42.698;23.350;2023-05-27T07:43:12;95531.09;;;18.39;64.33
78894;BME280;68282;42.698;23.350;2023-05-27T07:45:38;95529.44;;;18.43;64.27
78894;BME280;68282;42.698;23.350;2023-05-27T07:48:03;95531.31;;;18.48;64.53
78894;BME280;68282;42.698;23.350;2023-05-27T07:50:29;95527.47;;;18.44;64.07
78894;BME280;68282;42.698;23.350;2023-05-27T07:52:54;95533.78;;;18.49;63.72
78894;BME280;68282;42.698;23.350;2023-05-27T07:55:20;95528.53;;;18.53;64.20
78894;BME280;68282;42.698;23.350;2023-05-27T07:57:45;95540.34;;;18.59;64.37
78894;BME280;68282;42.698;23.350;2023-05-27T08:00:11;95529.63;;;18.57;63.73
78894;BME280;68282;42.698;23.350;2023-05-27T08:02:37;95540.34;;;18.59;63.04
78894;BME280;68282;42.698;23.350;2023-05-27T08:05:02;95539.53;;;18.58;63.24
78894;BME280;68282;42.698;23.350;2023-05-27T08:07:29;95542.00;;;18.60;63.27
78894;BME280;68282;42.698;23.350;2023-05-27T08:09:55;95553.00;;;18.65;63.94
78894;BME280;68282;42.698;23.350;2023-05-27T08:12:21;95544.19;;;18.63;63.11
78894;BME280;68282;42.698;23.350;2023-05-27T08:14:46;95544.44;;;18.66;62.92
78894;BME280;68282;42.698;23.350;2023-05-27T08:17:11;95540.31;;;18.64;62.89
78894;BME280;68282;42.698;23.350;2023-05-27T08:19:37;95537.28;;;18.65;62.99
78894;BME280;68282;42.698;23.350;2023-05-27T08:22:02;95540.88;;;18.66;63.19
78894;BME280;68282;42.698;23.350;2023-05-27T08:24:28;95540.56;;;18.67;63.46
78894;BME280;68282;42.698;23.350;2023-05-27T08:26:56;95536.72;;;18.68;63.13
78894;BME280;68282;42.698;23.350;2023-05-27T08:29:21;95533.94;;;18.74;63.50
78894;BME280;68282;42.698;23.350;2023-05-27T08:31:49;95538.31;;;18.75;63.64
78894;BME280;68282;42.698;23.350;2023-05-27T08:34:17;95535.84;;;18.73;62.75
78894;BME280;68282;42.698;23.350;2023-05-27T08:36:42;95544.97;;;18.74;62.33
78894;BME280;68282;42.698;23.350;2023-05-27T08:39:07;95541.06;;;18.75;62.71
78894;BME280;68282;42.698;23.350;2023-05-27T08:41:33;95538.84;;;18.77;62.98
78894;BME280;68282;42.698;23.350;2023-05-27T08:44:00;95539.16;;;18.75;63.10
78894;BME280;68282;42.698;23.350;2023-05-27T08:46:26;95539.09;;;18.80;63.87
78894;BME280;68282;42.698;23.350;2023-05-27T08:48:53;95533.88;;;18.79;63.50
78894;BME280;68282;42.698;23.350;2023-05-27T08:51:20;95529.22;;;18.79;62.87
78894;BME280;68282;42.698;23.350;2023-05-27T08:53:47;95532.25;;;18.78;63.24
78894;BME280;68282;42.698;23.350;2023-05-27T08:56:15;95533.88;;;18.79;63.05
78894;BME280;68282;42.698;23.350;2023-05-27T08:58:42;95533.06;;;18.78;63.12
78894;BME280;68282;42.698;23.350;2023-05-27T09:01:08;95536.63;;;18.79;63.22
78894;BME280;68282;42.698;23.350;2023-05-27T09:03:34;95538.84;;;18.77;63.75
78894;BME280;68282;42.698;23.350;2023-05-27T09:06:00;95530.59;;;18.77;64.30
78894;BME280;68282;42.698;23.350;2023-05-27T09:08:29;95530.03;;;18.80;63.91
78894;BME280;68282;42.698;23.350;2023-05-27T09:10:55;95529.72;;;18.81;nan
78894;BME280;68282;42.698;23.350;2023-05-27T09:13:30;95521.47;;;18.81;63.66
78894;BME280;68282;42.698;23.350;2023-05-27T09:16:05;95524.22;;;18.81;63.97
78894;BME280;68282;42.698;23.350;2023-05-27T09:18:32;95518.97;;;18.85;63.92
78894;BME280;68282;42.698;23.350;2023-05-27T09:20:58;95530.00;;;18.85;63.32
78894;BME280;68282;42.698;23.350;2023-05-27T09:23:24;95523.34;;;18.86;63.38
78894;BME280;68282;42.698;23.350;2023-05-27T09:25:51;95522.25;;;18.87;61.82
78894;BME280;68282;42.698;23.350;2023-05-27T09:28:23;95519.78;;;18.85;61.78
78894;BME280;68282;42.698;23.350;2023-05-27T09:31:02;95517.59;;;18.82;61.86
78894;BME280;68282;42.698;23.350;2023-05-27T09:33:34;95521.72;;;18.85;62.08
78894;BME280;68282;42.698;23.350;2023-05-27T09:36:00;95517.34;;;18.84;62.69
78894;BME280;68282;42.698;23.350;2023-05-27T09:38:30;95514.53;;;18.89;63.35
78894;BME280;68282;42.698;23.350;2023-05-27T09:40:59;95508.44;;;18.92;62.52
78894;BME280;68282;42.698;23.350;2023-05-27T09:43:25;95507.06;;;18.95;62.05
78894;BME280;68282;42.698;23.350;2023-05-27T09:46:01;95511.16;;;18.97;62.05
78894;BME280;68282;42.698;23.350;2023-05-27T09:48:31;95506.50;;;18.98;61.43
78894;BME280;68282;42.698;23.350;2023-05-27T09:50:58;95508.97;;;18.99;61.33
78894;BME280;68282;42.698;23.350;2023-05-27T09:53:25;95510.84;;;19.04;60.79
78894;BME280;68282;42.698;23.350;2023-05-27T09:55:55;95507.75;;;19.11;60.90
78894;BME280;68282;42.698;23.350;2023-05-27T09:58:22;95511.03;;;19.18;59.84
78894;BME280;68282;42.698;23.350;2023-05-27T10:00:49;95500.50;;;19.20;60.05
78894;BME280;68282;42.698;23.350;2023-05-27T10:03:16;95507.88;;;19.30;59.57
78894;BME280;68282;42.698;23.350;2023-05-27T10:05:43;95504.25;;;19.35;59.24
78894;BME280;68282;42.698;23.350;2023-05-27T10:08:08;95500.94;;;19.33;59.18
78894;BME280;68282;42.698;23.350;2023-05-27T10:10:34;95498.41;;;19.41;59.41
78894;BME280;68282;42.698;23.350;2023-05-27T10:12:59;95498.84;;;19.54;59.61
78894;BME280;68282;42.698;23.350;2023-05-27T10:15:30;95496.06;;;19.54;59.95
78894;BME280;68282;42.698;23.350;2023-05-27T10:17:58;95499.28;;;19.61;59.40
78894;BME280;68282;42.698;23.350;2023-05-27T10:22:51;95482.84;;;19.75;59.38
78894;BME280;68282;42.698;23.350;2023-05-27T10:25:17;95495.19;;;19.88;58.83
78894;BME280;68282;42.698;23.350;2023-05-27T10:27:46;95488.47;;;19.94;58.40
78894;BME280;68282;42.698;23.350;2023-05-27T10:30:15;95497.81;;;19.98;58.08
78894;BME280;68282;42.698;23.350;2023-05-27T10:32:59;95485.53;;;20.10;57.35
78894;BME280;68282;42.698;23.350;2023-05-27T10:35:27;95481.78;;;20.19;56.33
78894;BME280;68282;42.698;23.350;2023-05-27T10:38:13;95474.75;;;20.32;56.27
78894;BME280;68282;42.698;23.350;2023-05-27T10:40:39;95473.75;;;20.42;55.66
78894;BME280;68282;42.698;23.350;2023-05-27T10:43:04;95476.88;;;20.35;55.08
78894;BME280;68282;42.698;23.350;2023-05-27T10:45:33;95469.72;;;20.34;55.29
78894;BME280;68282;42.698;23.350;2023-05-27T10:47:59;95473.75;;;20.23;56.03
78894;BME280;68282;42.698;23.350;2023-05-27T10:50:30;95466.06;;;20.20;56.30
78894;BME280;68282;42.698;23.350;2023-05-27T10:52:59;95470.25;;;20.17;56.23
78894;BME280;68282;42.698;23.350;2023-05-27T10:55:24;95466.97;;;20.15;56.48
78894;BME280;68282;42.698;23.350;2023-05-27T10:57:50;95471.38;;;20.16;57.12
78894;BME280;68282;42.698;23.350;2023-05-27T11:00:17;95463.88;;;20.17;56.67
78894;BME280;68282;42.698;23.350;2023-05-27T11:02:43;95464.25;;;20.10;56.36
78894;BME280;68282;42.698;23.350;2023-05-27T11:05:10;95458.28;;;20.03;56.48
78894;BME280;68282;42.698;23.350;2023-05-27T11:07:37;95459.09;;;20.03;56.71
78894;BME280;68282;42.698;23.350;2023-05-27T11:10:05;95454.63;;;20.07;56.63
78894;BME280;68282;42.698;23.350;2023-05-27T11:12:32;95459.94;;;20.04;55.95
78894;BME280;68282;42.698;23.350;2023-05-27T11:14:57;95451.03;;;20.07;55.87
78894;BME280;68282;42.698;23.350;2023-05-27T11:17:23;95448.16;;;20.17;56.29
78894;BME280;68282;42.698;23.350;2023-05-27T11:19:49;95448.81;;;20.28;56.38
78894;BME280;68282;42.698;23.350;2023-05-27T11:22:16;95445.16;;;20.33;56.27
78894;BME280;68282;42.698;23.350;2023-05-27T11:24:42;95442.09;;;20.53;54.62
78894;BME280;68282;42.698;23.350;2023-05-27T11:27:09;95442.09;;;20.73;54.40
78894;BME280;68282;42.698;23.350;2023-05-27T11:29:36;95437.09;;;20.94;53.86
78894;BME280;68282;42.698;23.350;2023-05-27T11:32:03;95431.22;;;21.28;53.71
78894;BME280;68282;42.698;23.350;2023-05-27T11:34:28;95431.75;;;21.58;53.49
78894;BME280;68282;42.698;23.350;2023-05-27T11:36:54;95430.97;;;21.72;51.60
78894;BME280;68282;42.698;23.350;2023-05-27T11:39:21;95428.63;;;21.79;50.30
78894;BME280;68282;42.698;23.350;2023-05-27T11:41:51;95424.41;;;21.96;51.94
78894;BME280;68282;42.698;23.350;2023-05-27T11:44:18;95412.75;;;22.21;50.94
78894;BME280;68282;42.698;23.350;2023-05-27T11:46:45;95418.09;;;22.46;49.56
78894;BME280;68282;42.698;23.350;2023-05-27T11:49:13;95406.94;;;22.60;47.77
78894;BME280;68282;42.698;23.350;2023-05-27T11:51:49;95408.16;;;22.67;47.65
78894;BME280;68282;42.698;23.350;2023-05-27T11:54:22;95408.34;;;22.71;48.38
78894;BME280;68282;42.698;23.350;2023-05-27T11:56:48;95398.56;;;22.74;46.79
78894;BME280;68282;42.698;23.350;2023-05-27T11:59:14;95406.06;;;22.73;47.45
78894;BME280;68282;42.698;23.350;2023-05-27T12:01:43;95398.94;;;22.58;49.59
78894;BME280;68282;42.698;23.350;2023-05-27T12:04:09;95401.59;;;22.63;49.97
78894;BME280;68282;42.698;23.350;2023-05-27T12:06:36;95389.13;;;22.75;49.58
78894;BME280;68282;42.698;23.350;2023-05-27T12:09:08;95387.41;;;22.88;49.24
78894;BME280;68282;42.698;23.350;2023-05-27T12:11:34;95393.41;;;23.04;49.15
78894;BME280;68282;42.698;23.350;2023-05-27T12:14:00;95378.81;;;23.21;48.23
78894;BME280;68282;42.698;23.350;2023-05-27T12:16:26;95378.06;;;23.38;47.89
78894;BME280;68282;42.698;23.350;2023-05-27T12:18:51;95378.47;;;23.54;46.50
78894;BME280;68282;42.698;23.350;2023-05-27T12:21:17;95371.97;;;23.58;46.14
78894;BME280;68282;42.698;23.350;2023-05-27T12:23:43;95369.94;;;23.41;46.82
78894;BME280;68282;42.698;23.350;2023-05-27T12:26:09;95357.84;;;23.37;45.33
78894;BME280;68282;42.698;23.350;2023-05-27T12:28:35;95356.19;;;23.36;47.09
78894;BME280;68282;42.698;23.350;2023-05-27T12:31:02;95353.38;;;23.27;46.99
78894;BME280;68282;42.698;23.350;2023-05-27T12:33:27;95345.50;;;23.21;46.36
78894;BME280;68282;42.698;23.350;2023-05-27T12:35:53;95348.03;;;23.31;46.92
78894;BME280;68282;42.698;23.350;2023-05-27T12:38:18;95347.91;;;23.45;45.01
78894;BME280;68282;42.698;23.350;2023-05-27T12:40:44;95340.91;;;23.47;45.72
78894;BME280;68282;42.698;23.350;2023-05-27T12:43:09;95336.53;;;23.55;45.62
78894;BME280;68282;42.698;23.350;2023-05-27T12:45:35;95333.56;;;23.52;46.63
78894;BME280;68282;42.698;23.350;2023-05-27T12:48:00;95333.78;;;23.64;45.57
78894;BME280;68282;42.698;23.350;2023-05-27T12:50:27;95322.00;;;23.58;44.85
78894;BME280;68282;42.698;23.350;2023-05-27T12:52:52;95320.66;;;23.56;44.67
78894;BME280;68282;42.698;23.350;2023-05-27T12:55:20;95325.56;;;23.50;46.61